Arkholme, United Kingdom
Current Conditions -  °F | °C
As of 4:50 PM on Friday 21 Nov 2014 (Local Time) from EGNO Reporting Station
Moderate Rain Moderate Rain  
Wind Chill: 41°   Ceiling: 3600
Heat Index: 46°   Visibility: 2.8mi
Dew Point: 43°   Wind: 13mph
Humidity: 87%   Direction: 120°ESE
Pressure: 29.88"   Gusts: NA
Location:  54.13°N, 2.75°W
Report Text: EGNO 211650Z 12011KT 4500 RA SCT015 BKN036 08/06 Q1012
Loading
Personal Weather Stations






























Interactive Weather Map New forecast layout! Learn more

10-Day Weather Forecast

Advertisements
Track Severe Weather on mobile